M I D A S
Marine Information and Data Acquisition System
Tripno 946 of the Zeeleeuw from 2005-07-14 07:46:47 to 2005-07-14 12:55:17
Back to CruiseResearch ActivitiesStationsMapUnderway DataData graphs

EquipmentUnitsComment
TimeDGPSUTC
LatitudeDGPSDM.mWGS84
LongitudeDGPSDM.mWGS84
HeadingGyrodeg 
SOGDGPSknotsSpeed over ground
COGDGPSdegCourse over ground
DepthEcho soundermeters200 kHz
Missing or incorrect values are displayed as -999
Navigation data collected by the RV Zeeleeuw from 2005-07-14 07:48:16 to 2005-07-14 13:05:42
Time Latitude Longitude Heading SOG COG Depth
2005-07-14 07:49:23 51°13.613 2°56.053 116 3 295 -999
2005-07-14 07:50:22 51°13.639 2°55.966 122.2 4.2 298 -999
2005-07-14 07:51:23 51°13.675 2°55.868 120.1 4.1 300 -999
2005-07-14 07:52:23 51°13.697 2°55.777 102.7 3.5 285 -999
2005-07-14 07:53:22 51°13.704 2°55.755 65.6 0.3 323 13.6
2005-07-14 07:54:22 51°13.708 2°55.745 28.8 1.6 16 13.7
2005-07-14 07:55:22 51°13.77 2°55.698 328.1 5.1 326 10.3
2005-07-14 07:56:22 51°13.875 2°55.595 336.2 8 331 11.1
2005-07-14 07:57:22 51°14.004 2°55.505 342.4 8.6 338 12
2005-07-14 07:58:22 51°14.137 2°55.415 340.3 8.7 336 11.3
2005-07-14 07:59:22 51°14.254 2°55.28 323 8.9 317 11.5
2005-07-14 08:00:22 51°14.355 2°55.069 307.4 10.8 302 11.3
2005-07-14 08:01:22 51°14.424 2°54.784 287.4 12 283 11.2
2005-07-14 08:02:22 51°14.419 2°54.466 268 12.2 264 10.9
2005-07-14 08:03:22 51°14.361 2°54.154 250.8 12.1 248 10.4
2005-07-14 08:04:22 51°14.273 2°53.871 245 11.9 242 10.3
2005-07-14 08:05:22 51°14.181 2°53.591 244.5 12 242 10.4
2005-07-14 08:06:22 51°14.076 2°53.302 243.1 13.1 240 10.6
2005-07-14 08:07:22 51°13.966 2°52.997 241.4 13.3 238 10.9
2005-07-14 08:08:22 51°13.849 2°52.693 241.3 13.4 239 11
2005-07-14 08:09:22 51°13.736 2°52.392 241.5 13.4 239 11.1
2005-07-14 08:10:22 51°13.621 2°52.088 242.3 13.3 239 11.2
2005-07-14 08:11:22 51°13.506 2°51.781 242 13.4 239 11.3
2005-07-14 08:12:22 51°13.393 2°51.478 241.6 13.4 239 11.4
2005-07-14 08:13:22 51°13.278 2°51.171 242.5 13.3 240 11.4
2005-07-14 08:14:22 51°13.166 2°50.867 242.5 13.4 239 11.5
2005-07-14 08:15:22 51°13.052 2°50.559 241.7 13.5 239 11.7
2005-07-14 08:16:22 51°12.938 2°50.25 242.6 13.5 240 11.7
2005-07-14 08:17:22 51°12.825 2°49.946 242 13.5 239 11.7
2005-07-14 08:18:22 51°12.712 2°49.64 243.1 13.5 240 11.8
2005-07-14 08:19:22 51°12.597 2°49.33 242.1 13.5 240 11.9
2005-07-14 08:20:22 51°12.482 2°49.018 242.1 13.5 239 11.8
2005-07-14 08:21:22 51°12.369 2°48.712 242.4 13.5 240 11.7
2005-07-14 08:22:22 51°12.254 2°48.401 242.7 13.5 240 11.8
2005-07-14 08:23:22 51°12.14 2°48.094 242.1 13.6 240 11.7
2005-07-14 08:24:22 51°12.023 2°47.78 242.4 13.7 240 11.6
2005-07-14 08:25:22 51°11.909 2°47.469 242.4 13.6 240 11.4
2005-07-14 08:26:22 51°11.811 2°47.143 247.5 13.7 245 11.3
2005-07-14 08:27:22 51°11.712 2°46.815 247.3 13.7 245 11.4
2005-07-14 08:28:22 51°11.623 2°46.48 250.1 13.7 247 11.6
2005-07-14 08:29:23 51°11.535 2°46.141 250.2 13.7 247 11.7
2005-07-14 08:30:22 51°11.447 2°45.807 250.4 13.8 247 11.6
2005-07-14 08:31:23 51°11.359 2°45.466 250.4 13.8 247 11.6
2005-07-14 08:32:22 51°11.273 2°45.129 250.4 13.9 248 11.5
2005-07-14 08:33:23 51°11.185 2°44.786 250.3 13.9 248 11.5
2005-07-14 08:34:23 51°11.097 2°44.444 249.6 13.9 247 11.4
2005-07-14 08:35:22 51°11.01 2°44.106 250.2 14 248 11.3
2005-07-14 08:36:23 51°10.921 2°43.763 249.5 13.9 247 11.2
2005-07-14 08:37:22 51°10.832 2°43.43 249.6 13.7 247 11
2005-07-14 08:38:23 51°10.742 2°43.092 249.8 13.8 247 10.8
2005-07-14 08:39:22 51°10.66 2°42.752 253.3 13.8 250 10.8
2005-07-14 08:40:22 51°10.578 2°42.405 252.5 14 249 10.7
2005-07-14 08:41:22 51°10.495 2°42.059 252.5 14 250 10.8
2005-07-14 08:42:22 51°10.415 2°41.712 252.4 13.8 250 10.9
2005-07-14 08:43:22 51°10.342 2°41.364 254.2 13.8 251 10.9
2005-07-14 08:44:22 51°10.255 2°41.025 245.8 13.8 244 10.9
2005-07-14 08:45:23 51°10.155 2°40.691 246.7 13.9 245 10.8
2005-07-14 08:46:23 51°10.057 2°40.357 247.2 14 246 10.8
2005-07-14 08:47:22 51°9.962 2°40.023 247 14 245 10.7
2005-07-14 08:48:22 51°9.866 2°39.685 247.3 14 246 10.6
2005-07-14 08:49:23 51°9.769 2°39.343 247.5 14 246 10.6
2005-07-14 08:50:23 51°9.675 2°39.002 247.5 14.2 248 10.7
2005-07-14 08:51:22 51°9.607 2°38.649 254 14.1 252 11
2005-07-14 08:52:23 51°9.536 2°38.288 254.7 14.2 253 11
2005-07-14 08:53:22 51°9.466 2°37.932 254.3 14.3 253 11.4
2005-07-14 08:54:23 51°9.358 2°37.601 237.8 14 237 11.3
2005-07-14 08:55:22 51°9.239 2°37.311 236.9 13.5 237 11.1
2005-07-14 08:56:22 51°9.162 2°37.156 217.4 4.4 225 10.6
2005-07-14 08:57:22 51°9.155 2°37.135 246.8 0.1 12 -999
2005-07-14 08:58:22 51°9.157 2°37.131 243.3 0.3 306 5.4
2005-07-14 08:59:22 51°9.159 2°37.123 239.5 0.4 293 10.7
2005-07-14 09:00:22 51°9.163 2°37.112 236.3 0.5 294 10.8
2005-07-14 09:01:22 51°9.165 2°37.098 234.8 0.5 294 10.9
2005-07-14 09:02:21 51°9.168 2°37.083 235 0.6 280 10.9
2005-07-14 09:03:22 51°9.17 2°37.066 234 0.7 281 11
2005-07-14 09:04:22 51°9.171 2°37.048 232.5 0.7 274 11
2005-07-14 09:05:23 51°9.172 2°37.028 231.1 0.7 269 11.2
2005-07-14 09:06:22 51°9.172 2°37.008 229.6 0.8 272 11.2
2005-07-14 09:07:23 51°9.172 2°36.986 227.2 0.8 270 11.2
2005-07-14 09:08:22 51°9.172 2°36.964 224.9 0.8 264 11.3
2005-07-14 09:09:22 51°9.172 2°36.942 221.8 0.8 262 11.4
2005-07-14 09:10:21 51°9.171 2°36.919 217.3 0.9 265 11.5
2005-07-14 09:11:21 51°9.169 2°36.896 211.2 0.9 263 11.5
2005-07-14 09:12:22 51°9.167 2°36.872 203.9 0.9 262 11.6
2005-07-14 09:13:22 51°9.165 2°36.848 197.2 0.9 261 11.6
2005-07-14 09:14:22 51°9.163 2°36.824 189.6 0.9 258 11.7
2005-07-14 09:15:22 51°9.161 2°36.8 181.3 0.9 261 11.7
2005-07-14 09:16:22 51°9.158 2°36.777 173.4 0.9 257 11.8
2005-07-14 09:17:22 51°9.155 2°36.753 165.8 0.9 255 11.8
2005-07-14 09:18:22 51°9.151 2°36.73 158.8 0.9 258 11.9
2005-07-14 09:19:22 51°9.148 2°36.707 152.6 0.9 257 11.9
2005-07-14 09:20:22 51°9.144 2°36.684 147.4 0.9 255 12
2005-07-14 09:21:23 51°9.14 2°36.66 142.8 0.9 253 12
2005-07-14 09:22:22 51°9.134 2°36.642 134.9 0.8 190 12
2005-07-14 09:23:22 51°9.132 2°36.677 71.7 2 65 11.7
2005-07-14 09:24:22 51°9.153 2°36.742 74.7 3.1 65 11.8
2005-07-14 09:25:22 51°9.156 2°36.825 94.1 3.2 93 11.4
2005-07-14 09:26:22 51°9.147 2°36.906 100 3.1 103 11
2005-07-14 09:27:22 51°9.134 2°36.982 101.6 2.9 105 10.5
2005-07-14 09:28:22 51°9.128 2°37.055 92.7 2.7 93 10.2
2005-07-14 09:29:22 51°9.128 2°37.126 90 2.7 89 10.1
2005-07-14 09:30:22 51°9.126 2°37.197 93 2.7 93 10
2005-07-14 09:31:22 51°9.122 2°37.268 94.6 2.7 96 9.8
2005-07-14 09:32:22 51°9.117 2°37.338 94.5 2.7 95 9.8
2005-07-14 09:33:22 51°9.117 2°37.409 88 2.7 88 9.6
2005-07-14 09:34:22 51°9.122 2°37.48 84 2.7 81 9.6
2005-07-14 09:35:22 51°9.133 2°37.548 77 2.7 72 9.6
2005-07-14 09:36:22 51°9.145 2°37.618 80.8 2.7 77 9.7
2005-07-14 09:37:22 51°9.153 2°37.689 82.7 2.8 80 9.6
2005-07-14 09:38:22 51°9.161 2°37.76 81.3 2.7 78 9.6
2005-07-14 09:39:22 51°9.171 2°37.831 81 2.7 78 9.5
2005-07-14 09:40:22 51°9.179 2°37.902 81.2 2.7 79 9.5
2005-07-14 09:41:22 51°9.187 2°37.974 82.3 2.7 80 9.4
2005-07-14 09:42:22 51°9.198 2°38.045 78.6 2.8 75 9.4
2005-07-14 09:43:22 51°9.212 2°38.113 72.9 2.7 68 9.4
2005-07-14 09:44:22 51°9.23 2°38.18 72.9 2.8 68 9.4
2005-07-14 09:45:22 51°9.245 2°38.249 75.9 2.8 72 9.4
2005-07-14 09:46:22 51°9.26 2°38.319 75.4 2.8 71 9.3
2005-07-14 09:47:22 51°9.276 2°38.39 75.9 2.8 71 9.4
2005-07-14 09:48:22 51°9.29 2°38.46 75.9 2.8 74 9.3
2005-07-14 09:49:22 51°9.305 2°38.529 76.5 2.8 72 9.3
2005-07-14 09:50:22 51°9.318 2°38.598 76.5 2.7 71 9.3
2005-07-14 09:51:22 51°9.333 2°38.667 76.5 2.7 71 9.2
2005-07-14 09:52:22 51°9.347 2°38.733 76.1 2.7 71 9.2
2005-07-14 09:53:22 51°9.362 2°38.799 75.7 2.7 70 9.1
2005-07-14 09:54:22 51°9.376 2°38.866 76.3 2.7 70 9.1
2005-07-14 09:55:22 51°9.39 2°38.933 76.4 2.6 71 9
2005-07-14 09:56:22 51°9.407 2°38.998 75.4 2.6 69 9
2005-07-14 09:57:22 51°9.421 2°39.062 76.8 2.6 69 9
2005-07-14 09:58:22 51°9.435 2°39.127 76.9 2.6 70 9
2005-07-14 09:59:22 51°9.449 2°39.191 76.5 2.6 71 9
2005-07-14 10:00:22 51°9.463 2°39.255 76.6 2.6 71 9
2005-07-14 10:01:22 51°9.478 2°39.32 75.8 2.6 69 8.9
2005-07-14 10:02:22 51°9.492 2°39.383 76.2 2.5 71 8.9
2005-07-14 10:03:22 51°9.507 2°39.448 75.8 2.6 70 8.8
2005-07-14 10:04:22 51°9.522 2°39.515 75.8 2.7 70 8.9
2005-07-14 10:05:22 51°9.537 2°39.582 75.7 2.7 70 8.8
2005-07-14 10:06:22 51°9.552 2°39.65 76.5 2.7 73 8.7
2005-07-14 10:07:22 51°9.567 2°39.716 76 2.7 71 8.7
2005-07-14 10:08:22 51°9.582 2°39.783 76.2 2.7 71 8.6
2005-07-14 10:09:22 51°9.596 2°39.851 76.2 2.7 72 8.6
2005-07-14 10:10:21 51°9.61 2°39.918 77 2.7 73 8.5
2005-07-14 10:11:22 51°9.624 2°39.986 76.2 2.7 71 8.4
2005-07-14 10:12:22 51°9.638 2°40.055 76.2 2.7 71 8.5
2005-07-14 10:13:22 51°9.652 2°40.123 75.8 2.7 70 8.5
2005-07-14 10:14:22 51°9.667 2°40.191 76.3 2.8 71 8.4
2005-07-14 10:15:22 51°9.681 2°40.26 76.1 2.8 71 8.4
2005-07-14 10:16:23 51°9.697 2°40.33 76.1 2.8 72 8.3
2005-07-14 10:17:22 51°9.713 2°40.397 76 2.7 69 8.4
2005-07-14 10:18:22 51°9.727 2°40.466 78.3 2.7 74 8.4
2005-07-14 10:19:22 51°9.742 2°40.534 73.2 2.7 68 8.3
2005-07-14 10:20:22 51°9.762 2°40.598 70.5 2.7 63 8.3
2005-07-14 10:21:22 51°9.781 2°40.662 72.1 2.7 65 8.2
2005-07-14 10:22:21 51°9.8 2°40.726 72 2.7 65 8.2
2005-07-14 10:23:22 51°9.819 2°40.792 72.3 2.7 65 8.2
2005-07-14 10:24:22 51°9.837 2°40.856 72.1 2.7 65 8.2
2005-07-14 10:25:21 51°9.855 2°40.919 71.7 2.7 65 8.2
2005-07-14 10:26:22 51°9.875 2°40.989 73.2 3.1 67 8.4
2005-07-14 10:27:22 51°9.89 2°41.082 82.1 3.9 80 8.1
2005-07-14 10:28:22 51°9.901 2°41.186 81.7 4 79 8
2005-07-14 10:29:22 51°9.913 2°41.286 82.8 3.4 81 8
2005-07-14 10:30:22 51°9.912 2°41.347 96.7 1.9 104 7.9
2005-07-14 10:31:22 51°9.9 2°41.379 111.7 1.2 135 7.9
2005-07-14 10:32:22 51°9.884 2°41.391 120.5 1.1 168 7.8
2005-07-14 10:33:22 51°9.868 2°41.392 126 1 182 5.7
2005-07-14 10:34:22 51°9.842 2°41.412 120.3 2 144 5.7
2005-07-14 10:35:22 51°9.847 2°41.486 63.7 3.2 53 7.7
2005-07-14 10:36:22 51°9.918 2°41.535 31.2 5.7 18 7.7
2005-07-14 10:37:22 51°10.011 2°41.589 34.3 5.5 23 7.9
2005-07-14 10:38:22 51°10.072 2°41.648 48.1 3.8 34 8
2005-07-14 10:39:21 51°10.113 2°41.704 56.5 3.2 44 8.2
2005-07-14 10:40:22 51°10.144 2°41.764 61 2.8 52 8.2
2005-07-14 10:41:22 51°10.173 2°41.818 60.2 2.7 50 8.2
2005-07-14 10:42:22 51°10.2 2°41.874 63.7 2.7 54 8.2
2005-07-14 10:43:22 51°10.225 2°41.933 64.5 2.7 55 8.4
2005-07-14 10:44:22 51°10.25 2°41.991 64.5 2.6 55 8.4
2005-07-14 10:45:22 51°10.274 2°42.047 65.1 2.5 57 8.4
2005-07-14 10:46:22 51°10.296 2°42.102 67.1 2.5 58 8.4
2005-07-14 10:47:22 51°10.317 2°42.157 66.4 2.4 59 8.4
2005-07-14 10:48:22 51°10.338 2°42.211 66.8 2.4 58 8.4
2005-07-14 10:49:21 51°10.358 2°42.265 66.8 2.4 59 8.5
2005-07-14 10:50:22 51°10.378 2°42.32 66.4 2.5 59 8.6
2005-07-14 10:51:22 51°10.4 2°42.376 66.6 2.5 59 8.5
2005-07-14 10:52:22 51°10.415 2°42.436 75.3 2.5 72 8.5
2005-07-14 10:53:22 51°10.427 2°42.501 76.6 2.5 73 8.6
2005-07-14 10:54:22 51°10.44 2°42.566 75 2.5 72 8.5
2005-07-14 10:55:22 51°10.453 2°42.63 74.8 2.6 71 8.5
2005-07-14 10:56:22 51°10.465 2°42.695 74.7 2.6 70 8.4
2005-07-14 10:57:22 51°10.482 2°42.757 68 2.6 61 8.5
2005-07-14 10:58:22 51°10.503 2°42.817 67 2.7 59 8.4
2005-07-14 10:59:22 51°10.523 2°42.879 68.3 2.6 63 8.5
2005-07-14 11:00:22 51°10.542 2°42.94 67.7 2.6 62 8.6
2005-07-14 11:01:22 51°10.561 2°42.999 67.5 2.5 61 8.6
2005-07-14 11:02:22 51°10.581 2°43.059 67.5 2.5 62 8.6
2005-07-14 11:03:22 51°10.6 2°43.118 67.7 2.5 62 8.7
2005-07-14 11:04:22 51°10.619 2°43.177 68.6 2.5 63 8.8
2005-07-14 11:05:21 51°10.637 2°43.235 67.7 2.6 62 8.8
2005-07-14 11:06:22 51°10.657 2°43.293 68.2 2.5 63 8.8
2005-07-14 11:07:22 51°10.676 2°43.352 68.1 2.5 62 8.8
2005-07-14 11:08:22 51°10.694 2°43.41 68.3 2.5 63 8.9
2005-07-14 11:09:23 51°10.712 2°43.47 68.9 2.4 64 8.9
2005-07-14 11:10:22 51°10.725 2°43.542 79.1 3.1 79 8.9
2005-07-14 11:11:22 51°10.733 2°43.626 80.9 3.2 83 8.8
2005-07-14 11:12:22 51°10.733 2°43.707 91.5 2.9 94 8.7
2005-07-14 11:13:22 51°10.716 2°43.758 110.9 2 128 8.5
2005-07-14 11:14:22 51°10.691 2°43.783 124.8 1.7 157 8.3
2005-07-14 11:15:21 51°10.662 2°43.796 131.9 1.7 165 8.2
2005-07-14 11:16:22 51°10.638 2°43.931 89.4 7.3 90 7.9
2005-07-14 11:17:22 51°10.689 2°44.148 66.7 9.6 64 7.7
2005-07-14 11:18:22 51°10.732 2°44.403 78.9 10.1 77 7.5
2005-07-14 11:19:20 51°10.774 2°44.655 78.2 10.2 76 7.4
2005-07-14 11:20:22 51°10.815 2°44.916 79.3 9.7 78 7.4
2005-07-14 11:21:22 51°10.853 2°45.162 77.6 9.5 75 6.9
2005-07-14 11:22:21 51°10.889 2°45.403 79.6 9.6 77 7.1
2005-07-14 11:23:22 51°10.926 2°45.647 79.3 9.3 76 7.2
2005-07-14 11:24:23 51°10.961 2°45.886 78.6 9.1 76 7.2
2005-07-14 11:25:22 51°10.993 2°46.121 78.9 9.2 77 5.4
2005-07-14 11:26:22 51°11.032 2°46.354 76.2 9.2 75 7.3
2005-07-14 11:27:22 51°11.072 2°46.588 76.8 9 75 7.3
2005-07-14 11:28:22 51°11.104 2°46.781 73.6 7.1 71 7.6
2005-07-14 11:29:21 51°11.142 2°46.885 54.4 3.4 50 7.7
2005-07-14 11:30:22 51°11.179 2°46.963 63.2 4.6 59 7.6
2005-07-14 11:31:22 51°11.221 2°47.091 65.2 5.8 62 7.7
2005-07-14 11:32:22 51°11.267 2°47.232 66.3 6 64 7.7
2005-07-14 11:33:22 51°11.307 2°47.376 68.3 6 66 7.9
2005-07-14 11:34:22 51°11.349 2°47.52 67.6 6 66 7.9
2005-07-14 11:35:22 51°11.391 2°47.661 63.4 5.9 60 8.1
2005-07-14 11:36:21 51°11.447 2°47.787 57.7 5.9 53 8.1
2005-07-14 11:37:21 51°11.5 2°47.917 62.4 5.9 59 8.1
2005-07-14 11:38:22 51°11.553 2°48.048 61.1 5.9 57 8.1
2005-07-14 11:39:22 51°11.607 2°48.18 60.8 5.9 56 8
2005-07-14 11:40:22 51°11.661 2°48.309 60.7 5.9 56 8
2005-07-14 11:41:22 51°11.714 2°48.441 62.1 5.9 58 8
2005-07-14 11:42:22 51°11.768 2°48.574 60.9 5.9 57 8.1
2005-07-14 11:43:23 51°11.822 2°48.708 61.7 5.9 58 8.1
2005-07-14 11:44:21 51°11.874 2°48.835 60.3 5.9 56 8.1
2005-07-14 11:45:22 51°11.951 2°49.023 60.9 9.5 57 8
2005-07-14 11:46:22 51°12.056 2°49.263 60.1 11.4 55 7.9
2005-07-14 11:47:22 51°12.164 2°49.519 58.1 11.7 53 8
2005-07-14 11:48:22 51°12.27 2°49.778 63.5 11.7 58 8
2005-07-14 11:49:21 51°12.394 2°50.014 55.5 11.7 49 8.1
2005-07-14 11:50:22 51°12.517 2°50.26 53.7 11.7 48 8.1
2005-07-14 11:51:22 51°12.639 2°50.504 56.1 11.7 50 8.2
2005-07-14 11:52:21 51°12.748 2°50.754 64.8 11.7 61 8.3
2005-07-14 11:53:22 51°12.851 2°51.023 63.6 11.8 60 8.4
2005-07-14 11:54:22 51°12.954 2°51.292 63.3 11.8 59 8.5
2005-07-14 11:55:22 51°13.049 2°51.563 60.5 11.8 57 8.5
2005-07-14 11:56:22 51°13.15 2°51.833 63.1 11.9 59 8.6
2005-07-14 11:57:22 51°13.254 2°52.101 63.7 11.9 60 8.5
2005-07-14 11:58:22 51°13.358 2°52.371 63.4 11.9 58 8.6
2005-07-14 11:59:22 51°13.462 2°52.644 61.6 12 58 8.4
2005-07-14 12:00:22 51°13.565 2°52.915 60.9 12.1 57 8.3
2005-07-14 12:01:22 51°13.682 2°53.178 58.8 12 55 8.2
2005-07-14 12:02:22 51°13.815 2°53.413 49.7 12.1 45 8.2
2005-07-14 12:03:22 51°13.953 2°53.648 49.5 12.2 45 8.2
2005-07-14 12:04:23 51°14.092 2°53.89 54.3 12.1 50 8
2005-07-14 12:05:22 51°14.241 2°54.095 43.7 12.1 38 8.2
2005-07-14 12:06:22 51°14.412 2°54.27 38.7 12.2 31 8.7
2005-07-14 12:07:22 51°14.581 2°54.447 38.4 12.4 32 9.6
2005-07-14 12:08:22 51°14.75 2°54.621 39 12.1 33 8.7
2005-07-14 12:09:22 51°14.918 2°54.797 39.5 -999 -999 8
2005-07-14 12:10:22 51°15.08 2°54.982 39.1 11.9 32 7.5
2005-07-14 12:11:22 51°15.249 2°55.138 37 11.5 30 7.1
2005-07-14 12:12:22 51°15.399 2°55.314 51.3 11.4 45 7.1
2005-07-14 12:13:23 51°15.536 2°55.529 41.1 11.4 37 5.4
2005-07-14 12:14:22 51°15.649 2°55.768 60.2 11.4 58 7.3
2005-07-14 12:15:22 51°15.77 2°56.003 61.8 11.7 60 7.5
2005-07-14 12:16:22 51°15.869 2°56.269 54.7 11.6 50 7.5
2005-07-14 12:17:23 51°15.979 2°56.528 64.1 -999 -999 7.6
2005-07-14 12:18:22 51°16.094 2°56.771 57.8 11.7 55 7.8
2005-07-14 12:19:22 51°16.203 2°57.032 56.4 11.7 53 7.9
2005-07-14 12:20:23 51°16.304 2°57.301 68 11.8 63 8
2005-07-14 12:21:22 51°16.397 2°57.571 63.7 11.9 60 8.1
2005-07-14 12:22:22 51°16.483 2°57.853 64.5 11.9 62 8
2005-07-14 12:23:22 51°16.569 2°58.137 71.6 -999 -999 8
2005-07-14 12:24:23 51°16.67 2°58.414 63.3 11.9 58 8.1
2005-07-14 12:25:22 51°16.763 2°58.687 62.2 11.9 59 8.2
2005-07-14 12:26:22 51°16.859 2°58.967 64.5 12 61 8.3
2005-07-14 12:27:22 51°16.956 2°59.239 66.1 11.9 64 8.2
2005-07-14 12:28:22 51°17.053 2°59.513 63.1 11.8 60 8.3
2005-07-14 12:29:22 51°17.145 2°59.79 62.6 11.9 62 8.3
2005-07-14 12:30:22 51°17.243 3°0.066 65.2 11.8 63 8.2
2005-07-14 12:31:21 51°17.338 3°0.336 66.4 11.8 62 8.2
2005-07-14 12:32:22 51°17.428 3°0.614 61.1 11.7 62 8.2
2005-07-14 12:33:23 51°17.607 3°0.615 341.4 12 338 8.5
2005-07-14 12:34:23 51°17.624 3°0.283 266.1 13.7 261 8.5
2005-07-14 12:35:22 51°17.546 2°59.935 246 14.5 242 8.4
2005-07-14 12:36:22 51°17.431 2°59.586 248.8 14.8 243 8.5
2005-07-14 12:37:22 51°17.297 2°59.264 235 14.7 232 8.5
2005-07-14 12:38:22 51°17.157 2°58.941 235.6 14.8 231 8.6
2005-07-14 12:39:22 51°17.009 2°58.629 239.4 14.8 235 8.6
2005-07-14 12:40:22 51°16.86 2°58.308 235.1 14.9 233 8.6
2005-07-14 12:41:22 51°16.718 2°57.986 235.7 -999 -999 8.6
2005-07-14 12:42:22 51°16.573 2°57.663 239.2 15 237 8.6
2005-07-14 12:43:22 51°16.425 2°57.34 236 -999 -999 8.6
2005-07-14 12:44:22 51°16.281 2°57.017 236.4 15 234 8.5
2005-07-14 12:45:22 51°16.142 2°56.697 240 14.8 237 8.3
2005-07-14 12:46:23 51°15.993 2°56.377 238.5 14.8 232 8.1
2005-07-14 12:47:22 51°15.846 2°56.078 227.7 -999 -999 7.9
2005-07-14 12:48:22 51°15.694 2°55.78 236.7 14.5 233 7.7
2005-07-14 12:49:22 51°15.533 2°55.499 229.5 14.4 227 5.6
2005-07-14 12:50:22 51°15.403 2°55.179 244.6 14.3 241 7.6
2005-07-14 12:51:23 51°15.257 2°54.883 218.8 14.3 230 7.6
2005-07-14 12:52:23 51°15.041 2°54.765 185.4 13.7 185 7.8
2005-07-14 12:53:22 51°14.815 2°54.785 174.2 13.7 176 8.4
2005-07-14 12:54:21 51°14.597 2°54.821 169.8 13.1 173 9.1
2005-07-14 12:55:22 51°14.42 2°54.981 137.5 11.9 140 10
2005-07-14 12:56:23 51°14.295 2°55.216 133.5 11.5 130 9.7
2005-07-14 12:57:23 51°14.196 2°55.36 149 7.9 137 10.3
2005-07-14 12:58:23 51°14.086 2°55.447 159.5 7.7 155 9.7
2005-07-14 12:59:23 51°13.981 2°55.521 159.7 6.6 156 10.4
2005-07-14 13:00:22 51°13.886 2°55.591 157.9 6.3 154 9.6
2005-07-14 13:01:23 51°13.797 2°55.666 152.8 5.4 148 9.4
2005-07-14 13:02:22 51°13.748 2°55.753 126.3 4.1 122 8.7
2005-07-14 13:03:22 51°13.726 2°55.817 124.7 2.5 121 8
2005-07-14 13:04:22 51°13.708 2°55.863 125.8 1.9 121 5.6
2005-07-14 13:05:22 51°13.706 2°55.868 131.8 0.1 94 5.5